createdAt,value
2019-05-30T00:01:48.742Z,4.17
2019-05-30T00:04:16.008Z,4.03
2019-05-30T00:06:43.189Z,5.00
2019-05-30T00:09:10.362Z,4.97
2019-05-30T00:11:37.551Z,4.83
2019-05-30T00:14:04.993Z,3.90
2019-05-30T00:16:32.372Z,4.10
2019-05-30T00:19:00.799Z,4.40
2019-05-30T00:21:28.124Z,4.00
2019-05-30T00:23:55.796Z,3.50
2019-05-30T00:26:23.116Z,4.00
2019-05-30T00:28:50.309Z,4.60
2019-05-30T00:31:17.505Z,4.30
2019-05-30T00:33:44.684Z,4.17
2019-05-30T00:36:11.866Z,4.03
2019-05-30T00:38:39.040Z,3.67
2019-05-30T00:41:06.289Z,4.53
2019-05-30T00:43:33.608Z,3.80
2019-05-30T00:46:02.082Z,4.27
2019-05-30T00:48:29.464Z,3.80
2019-05-30T00:50:56.649Z,4.47
2019-05-30T00:53:23.824Z,4.40
2019-05-30T00:55:51.005Z,3.80
2019-05-30T00:58:18.202Z,4.20
2019-05-30T01:00:45.378Z,4.07
2019-05-30T01:03:13.265Z,4.20
2019-05-30T01:05:40.943Z,4.43
2019-05-30T01:08:08.124Z,4.63
2019-05-30T01:10:35.359Z,4.27
2019-05-30T01:13:03.130Z,4.23
2019-05-30T01:15:30.909Z,4.00
2019-05-30T01:17:59.036Z,4.67
2019-05-30T01:20:26.360Z,4.17
2019-05-30T01:22:53.614Z,4.37
2019-05-30T01:25:20.919Z,4.17
2019-05-30T01:27:48.349Z,4.00
2019-05-30T01:30:17.076Z,4.10
2019-05-30T01:32:44.301Z,3.77
2019-05-30T01:35:11.501Z,4.37
2019-05-30T01:37:38.700Z,4.07
2019-05-30T01:40:06.509Z,3.77
2019-05-30T01:42:33.790Z,3.50
2019-05-30T01:45:02.512Z,3.83
2019-05-30T01:47:29.856Z,4.50
2019-05-30T01:49:58.167Z,4.40
2019-05-30T01:52:25.648Z,4.50
2019-05-30T01:54:52.840Z,4.17
2019-05-30T01:57:20.013Z,4.10
2019-05-30T01:59:47.233Z,3.57
2019-05-30T02:02:14.421Z,3.60
2019-05-30T02:04:41.626Z,4.23
2019-05-30T02:07:09.414Z,4.07
2019-05-30T02:09:36.820Z,3.50
2019-05-30T02:12:05.474Z,3.43
2019-05-30T02:14:32.820Z,3.00
2019-05-30T02:17:01.603Z,4.30
2019-05-30T02:19:28.921Z,4.40
2019-05-30T02:21:56.125Z,4.30
2019-05-30T02:24:23.212Z,3.87
2019-05-30T02:26:50.380Z,5.40
2019-05-30T02:29:17.584Z,4.07
2019-05-30T02:31:44.949Z,4.70
2019-05-30T02:34:12.436Z,3.90
2019-05-30T02:36:39.777Z,4.70
2019-05-30T02:39:09.673Z,5.10
2019-05-30T02:41:36.639Z,5.40
2019-05-30T02:44:05.520Z,5.60
2019-05-30T02:46:32.917Z,4.50
2019-05-30T02:49:03.901Z,4.83
2019-05-30T02:51:29.197Z,5.67
2019-05-30T02:53:56.404Z,4.93
2019-05-30T02:56:23.593Z,5.60
2019-05-30T02:58:50.862Z,5.60
2019-05-30T03:01:18.085Z,4.80
2019-05-30T03:03:45.279Z,5.33
2019-05-30T03:06:13.867Z,5.67
2019-05-30T03:08:41.584Z,5.90
2019-05-30T03:11:10.870Z,5.50
2019-05-30T03:13:38.034Z,5.53
2019-05-30T03:16:07.489Z,5.60
2019-05-30T03:18:34.397Z,5.57
2019-05-30T03:21:03.153Z,6.30
2019-05-30T03:23:30.657Z,5.63
2019-05-30T03:25:58.031Z,6.40
2019-05-30T03:28:25.325Z,6.20
2019-05-30T03:30:52.517Z,5.60
2019-05-30T03:33:37.814Z,5.40
2019-05-30T03:35:48.827Z,5.90
2019-05-30T03:38:16.137Z,6.20
2019-05-30T03:40:43.346Z,5.77
2019-05-30T03:43:11.618Z,6.07
2019-05-30T03:45:41.249Z,4.93
2019-05-30T03:48:12.321Z,5.70
2019-05-30T03:50:43.781Z,5.23
2019-05-30T03:53:11.970Z,6.33
2019-05-30T03:55:43.841Z,5.40
2019-05-30T03:58:20.427Z,6.33
2019-05-30T04:00:53.078Z,6.40
2019-05-30T04:03:48.108Z,5.90
2019-05-30T04:06:27.968Z,6.87
2019-05-30T04:08:59.927Z,6.00
2019-05-30T04:11:40.558Z,6.10
2019-05-30T04:14:11.124Z,6.43
2019-05-30T04:16:39.223Z,5.80
2019-05-30T04:19:07.887Z,6.17
2019-05-30T04:21:35.397Z,5.77
2019-05-30T04:24:04.701Z,5.30
2019-05-30T04:26:31.886Z,5.43
2019-05-30T04:28:59.102Z,6.07
2019-05-30T04:31:26.175Z,7.43
2019-05-30T04:33:53.361Z,5.60
2019-05-30T04:36:20.770Z,6.20
2019-05-30T04:38:47.874Z,5.73
2019-05-30T04:41:15.923Z,6.43
2019-05-30T04:43:44.145Z,5.67
2019-05-30T04:46:12.650Z,6.00
2019-05-30T04:48:40.417Z,6.43
2019-05-30T04:51:07.614Z,5.60
2019-05-30T04:53:35.124Z,5.50
2019-05-30T04:56:02.360Z,5.40
2019-05-30T04:58:29.635Z,5.00
2019-05-30T05:00:56.818Z,5.20
2019-05-30T05:03:44.434Z,4.60
2019-05-30T05:05:53.025Z,5.23
2019-05-30T05:08:20.217Z,4.30
2019-05-30T05:10:47.796Z,4.67
2019-05-30T05:13:16.271Z,3.97
2019-05-30T05:15:43.669Z,4.37
2019-05-30T05:18:10.875Z,3.80
2019-05-30T05:20:38.053Z,3.70
2019-05-30T05:23:05.612Z,3.73
2019-05-30T05:25:32.780Z,3.80
2019-05-30T05:27:59.986Z,3.10
2019-05-30T05:30:27.158Z,2.90
2019-05-30T05:32:54.341Z,3.50
2019-05-30T05:35:22.898Z,3.77
2019-05-30T05:37:50.353Z,3.43
2019-05-30T05:40:18.087Z,3.00
2019-05-30T05:42:45.454Z,3.23
2019-05-30T05:45:13.032Z,3.30
2019-05-30T05:47:40.222Z,2.73
2019-05-30T05:50:07.510Z,3.30
2019-05-30T05:52:34.712Z,3.80
2019-05-30T05:55:01.925Z,3.23
2019-05-30T05:57:29.190Z,3.50
2019-05-30T05:59:56.404Z,4.10
2019-05-30T06:02:23.592Z,3.33
2019-05-30T06:04:50.803Z,3.20
2019-05-30T06:07:18.221Z,2.57
2019-05-30T06:09:45.468Z,3.13
2019-05-30T06:12:12.652Z,2.70
2019-05-30T06:14:39.829Z,3.43
2019-05-30T06:17:07.004Z,3.40
2019-05-30T06:19:46.094Z,3.23
2019-05-30T06:22:03.405Z,2.63
2019-05-30T06:24:30.580Z,2.63
2019-05-30T06:26:57.756Z,2.93
2019-05-30T06:29:25.188Z,3.00
2019-05-30T06:31:53.404Z,3.07
2019-05-30T06:34:30.269Z,2.63
2019-05-30T06:36:49.677Z,2.50
2019-05-30T06:39:16.872Z,3.00
2019-05-30T06:41:44.064Z,2.40
2019-05-30T06:44:11.234Z,2.40
2019-05-30T06:46:38.429Z,2.77
2019-05-30T06:49:05.613Z,1.70
2019-05-30T06:51:32.794Z,2.47
2019-05-30T06:53:59.961Z,2.13
2019-05-30T06:56:27.479Z,2.30
2019-05-30T06:58:54.833Z,2.60
2019-05-30T07:01:22.143Z,2.10
2019-05-30T07:03:49.512Z,2.17
2019-05-30T07:06:17.369Z,2.40
2019-05-30T07:08:44.812Z,2.40
2019-05-30T07:11:11.998Z,2.30
2019-05-30T07:13:39.195Z,2.90
2019-05-30T07:16:06.381Z,2.40
2019-05-30T07:18:36.312Z,1.97
2019-05-30T07:21:02.667Z,2.80
2019-05-30T07:23:30.210Z,2.37
2019-05-30T07:25:57.572Z,1.70
2019-05-30T07:28:25.771Z,2.50
2019-05-30T07:30:53.160Z,2.10
2019-05-30T07:33:20.347Z,2.63
2019-05-30T07:35:47.562Z,2.67
2019-05-30T07:38:14.744Z,1.77
2019-05-30T07:40:41.963Z,2.13
2019-05-30T07:43:09.284Z,1.93
2019-05-30T07:45:36.600Z,2.40
2019-05-30T07:48:04.148Z,2.30
2019-05-30T07:50:32.448Z,2.43
2019-05-30T07:52:59.816Z,2.40
2019-05-30T07:55:27.001Z,2.70
2019-05-30T07:57:54.200Z,2.40
2019-05-30T08:00:21.605Z,2.10
2019-05-30T08:02:48.808Z,2.30
2019-05-30T08:05:23.949Z,2.67
2019-05-30T08:07:45.152Z,2.07
2019-05-30T08:10:13.045Z,2.10
2019-05-30T08:12:40.265Z,2.43
2019-05-30T08:15:07.893Z,2.07
2019-05-30T08:17:35.711Z,2.43
2019-05-30T08:20:03.773Z,2.03
2019-05-30T08:22:31.900Z,2.67
2019-05-30T08:24:59.257Z,2.23
2019-05-30T08:27:26.465Z,2.10
2019-05-30T08:29:53.666Z,2.00
2019-05-30T08:32:20.962Z,2.53
2019-05-30T08:34:48.135Z,1.93
2019-05-30T08:37:15.442Z,2.13
2019-05-30T08:39:42.660Z,2.20
2019-05-30T08:42:09.874Z,2.37
2019-05-30T08:44:37.982Z,2.40
2019-05-30T08:47:05.367Z,2.10
2019-05-30T08:49:32.569Z,2.00
2019-05-30T08:51:59.572Z,2.60
2019-05-30T08:54:26.766Z,2.50
2019-05-30T08:56:53.972Z,2.47
2019-05-30T08:59:21.177Z,2.20
2019-05-30T09:01:52.635Z,2.13
2019-05-30T09:04:17.463Z,1.97
2019-05-30T09:06:44.664Z,2.50
2019-05-30T09:09:11.855Z,2.37
2019-05-30T09:11:40.498Z,2.20
2019-05-30T09:14:08.310Z,2.63
2019-05-30T09:16:35.553Z,2.17
2019-05-30T09:19:03.239Z,2.20
2019-05-30T09:21:30.408Z,2.20
2019-05-30T09:24:01.057Z,2.30
2019-05-30T09:26:26.672Z,2.43
2019-05-30T09:28:53.849Z,2.37
2019-05-30T09:31:21.043Z,2.30
2019-05-30T09:33:48.652Z,1.83
2019-05-30T09:36:15.998Z,2.10
2019-05-30T09:38:43.567Z,2.43
2019-05-30T09:41:10.968Z,1.87
2019-05-30T09:43:38.154Z,1.87
2019-05-30T09:46:05.336Z,2.20
2019-05-30T09:48:32.522Z,2.30
2019-05-30T09:50:59.692Z,1.83
2019-05-30T09:53:26.877Z,2.20
2019-05-30T09:55:54.066Z,1.90
2019-05-30T09:58:21.932Z,1.67
2019-05-30T10:00:50.362Z,2.20
2019-05-30T10:03:17.803Z,2.13
2019-05-30T10:05:45.612Z,2.23
2019-05-30T10:08:14.304Z,2.20
2019-05-30T10:10:43.752Z,1.47
2019-05-30T10:13:10.712Z,2.00
2019-05-30T10:15:37.950Z,1.50
2019-05-30T10:18:05.211Z,1.57
2019-05-30T10:20:32.393Z,1.93
2019-05-30T10:22:59.580Z,1.40
2019-05-30T10:25:26.973Z,2.10
2019-05-30T10:27:54.791Z,1.90
2019-05-30T10:30:23.267Z,2.07
2019-05-30T10:32:51.891Z,2.17
2019-05-30T10:35:19.470Z,2.00
2019-05-30T10:37:47.125Z,1.90
2019-05-30T10:40:14.948Z,1.60
2019-05-30T10:42:42.137Z,1.90
2019-05-30T10:45:10.297Z,2.30
2019-05-30T10:47:37.693Z,1.80
2019-05-30T10:50:05.763Z,2.00
2019-05-30T10:52:32.970Z,2.20
2019-05-30T10:55:00.147Z,1.77
2019-05-30T10:57:27.343Z,1.90
2019-05-30T10:59:54.693Z,2.10
2019-05-30T11:02:22.027Z,2.23
2019-05-30T11:04:50.502Z,2.20
2019-05-30T11:07:27.266Z,1.60
2019-05-30T11:10:02.589Z,2.20
2019-05-30T11:12:29.842Z,2.43
2019-05-30T11:14:57.865Z,1.87
2019-05-30T11:17:25.227Z,1.63
2019-05-30T11:19:53.978Z,2.40
2019-05-30T11:22:21.452Z,2.20
2019-05-30T11:24:48.868Z,2.10
2019-05-30T11:27:17.460Z,2.33
2019-05-30T11:29:44.642Z,1.83
2019-05-30T11:32:11.837Z,5.73
2019-05-30T11:34:38.917Z,1.80
2019-05-30T11:37:18.935Z,1.80
2019-05-30T11:39:35.229Z,1.57
2019-05-30T11:42:03.138Z,2.00
2019-05-30T11:44:30.335Z,1.67
2019-05-30T11:46:57.754Z,1.50
2019-05-30T11:49:25.084Z,1.70
2019-05-30T11:51:52.189Z,1.87
2019-05-30T11:54:19.380Z,1.73
2019-05-30T11:56:46.580Z,1.90
2019-05-30T11:59:14.364Z,1.60
2019-05-30T12:01:41.558Z,1.53
2019-05-30T12:04:08.763Z,1.80
2019-05-30T12:06:35.952Z,1.90
2019-05-30T12:09:04.980Z,1.90
2019-05-30T12:11:32.322Z,2.03
2019-05-30T12:13:59.564Z,1.73
2019-05-30T12:16:26.877Z,2.00
2019-05-30T12:18:54.093Z,1.70
2019-05-30T12:21:22.849Z,1.90
2019-05-30T12:23:50.041Z,2.00
2019-05-30T12:26:17.224Z,1.60
2019-05-30T12:28:44.417Z,1.90
2019-05-30T12:31:11.600Z,1.80
2019-05-30T12:33:38.797Z,2.00
2019-05-30T12:36:06.669Z,1.70
2019-05-30T12:38:33.880Z,1.80
2019-05-30T12:41:01.087Z,2.00
2019-05-30T12:43:28.285Z,1.90
2019-05-30T12:45:55.365Z,1.90
2019-05-30T12:48:22.590Z,1.63
2019-05-30T12:50:49.800Z,1.90
2019-05-30T12:53:17.018Z,2.00
2019-05-30T12:55:44.208Z,1.83
2019-05-30T12:58:11.381Z,1.60
2019-05-30T13:00:39.470Z,1.50
2019-05-30T13:03:07.270Z,1.97
2019-05-30T13:05:34.652Z,1.63
2019-05-30T13:08:18.718Z,1.90
2019-05-30T13:10:30.967Z,1.70
2019-05-30T13:12:59.489Z,2.10
2019-05-30T13:15:26.938Z,2.30
2019-05-30T13:17:55.657Z,1.90
2019-05-30T13:20:23.592Z,2.10
2019-05-30T13:22:50.796Z,2.20
2019-05-30T13:25:18.397Z,2.17
2019-05-30T13:27:45.584Z,2.30
2019-05-30T13:30:13.492Z,2.00
2019-05-30T13:32:40.676Z,2.03
2019-05-30T13:35:08.900Z,1.80
2019-05-30T13:37:36.116Z,1.60
2019-05-30T13:40:06.632Z,1.83
2019-05-30T13:42:33.865Z,1.60
2019-05-30T13:45:02.126Z,1.67
2019-05-30T13:47:29.570Z,2.27
2019-05-30T13:49:56.792Z,1.90
2019-05-30T13:52:24.093Z,1.83
2019-05-30T13:54:51.300Z,2.37
2019-05-30T13:57:18.469Z,2.20
2019-05-30T13:59:45.661Z,2.13
2019-05-30T14:02:12.849Z,1.70
2019-05-30T14:04:40.150Z,1.97
2019-05-30T14:07:08.347Z,2.00
2019-05-30T14:09:35.905Z,1.87
2019-05-30T14:12:03.106Z,1.90
2019-05-30T14:14:30.300Z,1.77
2019-05-30T14:16:57.520Z,2.13
2019-05-30T14:19:25.269Z,1.70
2019-05-30T14:21:52.590Z,2.20
2019-05-30T14:24:19.782Z,2.00
2019-05-30T14:26:47.037Z,1.93
2019-05-30T14:29:14.468Z,2.47
2019-05-30T14:31:41.669Z,2.13
2019-05-30T14:34:10.120Z,1.93
2019-05-30T14:36:37.536Z,1.77
2019-05-30T14:39:06.865Z,1.90
2019-05-30T14:41:34.203Z,1.97
2019-05-30T14:44:01.373Z,1.97
2019-05-30T14:46:28.570Z,1.93
2019-05-30T14:48:55.796Z,2.10
2019-05-30T14:51:23.014Z,2.17
2019-05-30T14:53:50.228Z,1.70
2019-05-30T14:56:17.693Z,1.90
2019-05-30T14:58:45.105Z,1.80
2019-05-30T15:01:13.387Z,1.97
2019-05-30T15:03:40.797Z,1.87
2019-05-30T15:06:09.206Z,1.93
2019-05-30T15:08:37.073Z,1.50
2019-05-30T15:11:05.447Z,1.70
2019-05-30T15:13:32.829Z,2.10
2019-05-30T15:16:00.025Z,1.93
2019-05-30T15:18:27.128Z,2.10
2019-05-30T15:20:54.333Z,1.87
2019-05-30T15:23:21.434Z,1.87
2019-05-30T15:25:48.615Z,1.93
2019-05-30T15:28:16.166Z,1.77
2019-05-30T15:30:43.617Z,1.50
2019-05-30T15:33:10.890Z,1.50
2019-05-30T15:35:38.160Z,1.50
2019-05-30T15:38:05.664Z,1.60
2019-05-30T15:40:33.934Z,1.30
2019-05-30T15:43:01.180Z,1.53
2019-05-30T15:45:28.355Z,2.40
2019-05-30T15:47:55.544Z,1.90
2019-05-30T15:50:22.741Z,1.60
2019-05-30T15:52:49.956Z,1.77
2019-05-30T15:55:17.457Z,1.40
2019-05-30T15:57:45.080Z,1.70
2019-05-30T16:00:15.965Z,1.73
2019-05-30T16:02:43.516Z,1.53
2019-05-30T16:05:12.661Z,1.53
2019-05-30T16:07:39.925Z,2.20
2019-05-30T16:10:07.399Z,1.90
2019-05-30T16:12:34.593Z,1.77
2019-05-30T16:15:01.790Z,1.77
2019-05-30T16:17:29.057Z,1.70
2019-05-30T16:19:56.252Z,2.73
2019-05-30T16:22:23.451Z,2.10
2019-05-30T16:24:50.637Z,1.60
2019-05-30T16:27:17.851Z,2.43
2019-05-30T16:29:45.120Z,2.30
2019-05-30T16:32:12.301Z,2.47
2019-05-30T16:34:39.495Z,1.97
2019-05-30T16:37:06.676Z,2.60
2019-05-30T16:39:33.853Z,2.47
2019-05-30T16:42:01.034Z,2.00
2019-05-30T16:44:28.225Z,2.23
2019-05-30T16:46:55.393Z,2.73
2019-05-30T16:49:22.931Z,2.70
2019-05-30T16:51:50.801Z,2.20
2019-05-30T16:54:19.178Z,1.90
2019-05-30T16:56:46.563Z,2.53
2019-05-30T16:59:14.490Z,2.50
2019-05-30T17:01:41.996Z,1.93
2019-05-30T17:04:09.271Z,2.20
2019-05-30T17:06:36.459Z,1.83
2019-05-30T17:09:05.760Z,2.10
2019-05-30T17:11:33.724Z,2.00
2019-05-30T17:14:00.924Z,5.27
2019-05-30T17:16:28.101Z,13.10
2019-05-30T17:18:55.424Z,2.27
2019-05-30T17:21:22.768Z,2.33
2019-05-30T17:23:50.085Z,2.40
2019-05-30T17:26:17.260Z,2.33
2019-05-30T17:28:44.437Z,2.13
2019-05-30T17:31:11.628Z,2.10
2019-05-30T17:33:38.804Z,2.23
2019-05-30T17:36:06.021Z,1.63
2019-05-30T17:38:33.184Z,2.00
2019-05-30T17:41:00.362Z,2.07
2019-05-30T17:43:27.543Z,1.80
2019-05-30T17:45:54.714Z,2.40
2019-05-30T17:48:21.964Z,1.67
2019-05-30T17:50:49.177Z,1.90
2019-05-30T17:53:16.340Z,2.20
2019-05-30T17:55:43.533Z,2.43
2019-05-30T17:58:10.716Z,2.60
2019-05-30T18:00:37.998Z,2.07
2019-05-30T18:03:05.388Z,2.03
2019-05-30T18:05:32.584Z,2.20
2019-05-30T18:07:59.744Z,2.00
2019-05-30T18:10:27.034Z,2.03
2019-05-30T18:12:54.224Z,2.20
2019-05-30T18:15:24.896Z,2.10
2019-05-30T18:17:50.786Z,2.23
2019-05-30T18:20:18.171Z,2.20
2019-05-30T18:22:45.404Z,2.80
2019-05-30T18:25:12.836Z,2.10
2019-05-30T18:27:40.124Z,2.60
2019-05-30T18:30:07.768Z,3.03
2019-05-30T18:32:34.949Z,2.50
2019-05-30T18:35:02.150Z,2.30
2019-05-30T18:37:30.507Z,2.50
2019-05-30T18:39:57.841Z,2.60
2019-05-30T18:42:25.441Z,2.90
2019-05-30T18:44:53.128Z,4.50
2019-05-30T18:47:20.312Z,4.10
2019-05-30T18:49:47.505Z,4.20
2019-05-30T18:52:17.262Z,3.67
2019-05-30T18:54:43.786Z,3.77
2019-05-30T18:57:11.010Z,3.00
2019-05-30T18:59:38.221Z,3.40
2019-05-30T19:02:05.429Z,2.70
2019-05-30T19:04:33.607Z,2.93
2019-05-30T19:07:01.004Z,3.03
2019-05-30T19:09:29.396Z,3.23
2019-05-30T19:11:57.092Z,3.40
2019-05-30T19:14:27.427Z,4.93
2019-05-30T19:16:53.399Z,5.40
2019-05-30T19:19:20.593Z,8.73
2019-05-30T19:21:47.841Z,5.30
2019-05-30T19:24:15.052Z,6.73
2019-05-30T19:26:42.244Z,4.80
2019-05-30T19:29:09.453Z,3.63
2019-05-30T19:31:36.984Z,3.10
2019-05-30T19:34:04.345Z,3.27
2019-05-30T19:36:31.513Z,2.57
2019-05-30T19:38:58.714Z,3.23
2019-05-30T19:41:27.331Z,3.53
2019-05-30T19:43:54.693Z,2.90
2019-05-30T19:46:21.889Z,3.37
2019-05-30T19:48:49.085Z,2.77
2019-05-30T19:51:16.260Z,3.33
2019-05-30T19:53:43.481Z,4.90
2019-05-30T19:56:10.895Z,3.63
2019-05-30T19:58:38.221Z,3.43
2019-05-30T20:01:05.421Z,2.67
2019-05-30T20:03:37.519Z,2.83
2019-05-30T20:06:01.707Z,3.23
2019-05-30T20:08:45.677Z,3.53
2019-05-30T20:10:58.004Z,2.57
2019-05-30T20:13:25.205Z,3.20
2019-05-30T20:15:52.416Z,2.93
2019-05-30T20:18:19.633Z,3.80
2019-05-30T20:20:56.742Z,3.50
2019-05-30T20:23:15.910Z,3.30
2019-05-30T20:25:45.894Z,3.80
2019-05-30T20:28:12.196Z,2.83
2019-05-30T20:30:39.364Z,3.30
2019-05-30T20:33:06.552Z,3.20
2019-05-30T20:35:36.088Z,3.17
2019-05-30T20:38:02.907Z,3.20
2019-05-30T20:40:30.088Z,3.00
2019-05-30T20:42:57.268Z,3.30
2019-05-30T20:45:24.487Z,3.90
2019-05-30T20:47:51.704Z,4.13
2019-05-30T20:50:19.480Z,4.37
2019-05-30T20:52:47.612Z,3.73
2019-05-30T20:55:15.040Z,3.63
2019-05-30T20:57:42.540Z,3.43
2019-05-30T21:00:10.545Z,3.80
2019-05-30T21:02:38.754Z,4.40
2019-05-30T21:05:06.928Z,3.47
2019-05-30T21:07:35.844Z,4.10
2019-05-30T21:10:03.546Z,4.23
2019-05-30T21:12:38.878Z,4.83
2019-05-30T21:15:04.241Z,4.33
2019-05-30T21:17:32.254Z,4.63
2019-05-30T21:19:59.428Z,5.20
2019-05-30T21:22:26.629Z,5.10
2019-05-30T21:24:53.816Z,5.10
2019-05-30T21:27:21.020Z,6.20
2019-05-30T21:29:48.196Z,4.87
2019-05-30T21:32:15.525Z,4.97
2019-05-30T21:34:44.326Z,4.60
2019-05-30T21:37:11.898Z,4.97
2019-05-30T21:39:40.018Z,4.40
2019-05-30T21:42:07.368Z,4.40
2019-05-30T21:44:34.549Z,4.03
2019-05-30T21:47:01.802Z,4.77
2019-05-30T21:49:29.114Z,5.10
2019-05-30T21:51:56.409Z,4.30
2019-05-30T21:54:23.584Z,3.93
2019-05-30T21:56:50.776Z,5.03
2019-05-30T21:59:17.974Z,3.67
2019-05-30T22:01:46.551Z,4.37
2019-05-30T22:04:14.135Z,3.93
2019-05-30T22:06:42.720Z,5.10
2019-05-30T22:09:10.313Z,4.73
2019-05-30T22:11:38.064Z,4.90
2019-05-30T22:14:05.904Z,5.00
2019-05-30T22:16:33.169Z,4.97
2019-05-30T22:19:00.368Z,4.20
2019-05-30T22:21:27.564Z,4.20
2019-05-30T22:23:55.535Z,4.87
2019-05-30T22:26:22.717Z,4.23
2019-05-30T22:28:50.511Z,4.00
2019-05-30T22:31:17.788Z,4.60
2019-05-30T22:33:45.020Z,3.90
2019-05-30T22:36:12.280Z,4.00
2019-05-30T22:38:39.568Z,4.00
2019-05-30T22:41:06.745Z,4.27
2019-05-30T22:43:33.928Z,4.00
2019-05-30T22:46:01.109Z,3.83
2019-05-30T22:48:28.323Z,3.87
2019-05-30T22:50:55.516Z,3.60
2019-05-30T22:53:22.696Z,3.83
2019-05-30T22:55:51.876Z,3.60
2019-05-30T22:58:19.020Z,3.20
2019-05-30T23:00:46.309Z,4.53
2019-05-30T23:03:14.380Z,5.33
2019-05-30T23:05:41.583Z,6.00
2019-05-30T23:08:08.777Z,5.97
2019-05-30T23:10:35.944Z,5.30
2019-05-30T23:13:03.144Z,5.47
2019-05-30T23:15:30.337Z,5.33
2019-05-30T23:17:57.560Z,5.10
2019-05-30T23:20:24.754Z,4.30
2019-05-30T23:22:53.017Z,4.33
2019-05-30T23:25:20.325Z,3.97
2019-05-30T23:27:47.513Z,3.83
2019-05-30T23:30:15.281Z,4.77
2019-05-30T23:32:42.360Z,4.63
2019-05-30T23:35:09.633Z,4.67
2019-05-30T23:37:36.817Z,4.43
2019-05-30T23:40:04.529Z,5.50
2019-05-30T23:42:31.700Z,4.77
2019-05-30T23:44:59.592Z,5.07
2019-05-30T23:47:27.499Z,4.57
2019-05-30T23:49:55.939Z,5.10
2019-05-30T23:52:23.347Z,4.63
2019-05-30T23:54:50.506Z,4.10
2019-05-30T23:57:17.673Z,5.13
2019-05-30T23:59:44.852Z,5.47
